createdAt,value
2022-07-29T00:01:49.451Z,22.34
2022-07-29T00:04:42.027Z,22.33
2022-07-29T00:07:35.366Z,22.29
2022-07-29T00:10:27.799Z,22.26
2022-07-29T00:13:32.554Z,22.22
2022-07-29T00:16:25.772Z,22.21
2022-07-29T00:19:18.437Z,22.20
2022-07-29T00:22:10.467Z,22.19
2022-07-29T00:25:02.705Z,22.17
2022-07-29T00:27:55.353Z,22.16
2022-07-29T00:30:47.957Z,22.13
2022-07-29T00:33:39.345Z,22.10
2022-07-29T00:36:32.063Z,22.09
2022-07-29T00:39:24.503Z,22.08
2022-07-29T00:42:17.569Z,22.06
2022-07-29T00:45:10.875Z,22.05
2022-07-29T00:48:03.029Z,22.01
2022-07-29T00:50:56.024Z,21.95
2022-07-29T00:53:52.166Z,21.92
2022-07-29T00:56:44.685Z,21.88
2022-07-29T00:59:37.523Z,21.87
2022-07-29T01:02:29.758Z,21.86
2022-07-29T01:05:24.258Z,21.85
2022-07-29T01:08:18.322Z,21.82
2022-07-29T01:11:11.898Z,21.80
2022-07-29T01:14:06.017Z,21.79
2022-07-29T01:17:03.861Z,21.78
2022-07-29T01:20:03.270Z,21.76
2022-07-29T01:23:29.160Z,21.75
2022-07-29T01:26:35.902Z,21.73
2022-07-29T01:29:38.686Z,21.71
2022-07-29T01:32:34.328Z,21.70
2022-07-29T01:35:31.117Z,21.66
2022-07-29T01:38:27.139Z,21.62
2022-07-29T01:41:23.265Z,21.60
2022-07-29T01:44:21.262Z,21.60
2022-07-29T01:47:18.462Z,21.59
2022-07-29T01:50:13.923Z,21.57
2022-07-29T01:53:09.278Z,21.57
2022-07-29T01:56:03.158Z,21.54
2022-07-29T01:58:56.931Z,21.53
2022-07-29T02:01:54.356Z,21.50
2022-07-29T02:04:49.762Z,21.50
2022-07-29T02:07:42.828Z,21.49
2022-07-29T02:10:38.337Z,21.47
2022-07-29T02:13:33.925Z,21.47
2022-07-29T02:16:29.299Z,21.48
2022-07-29T02:19:24.641Z,21.47
2022-07-29T02:22:18.533Z,21.45
2022-07-29T02:25:14.753Z,21.45
2022-07-29T02:28:10.086Z,21.44
2022-07-29T02:31:04.947Z,21.43
2022-07-29T02:33:58.667Z,21.41
2022-07-29T02:36:52.005Z,21.41
2022-07-29T02:39:46.576Z,21.42
2022-07-29T02:42:41.154Z,21.40
2022-07-29T02:45:34.340Z,21.41
2022-07-29T02:48:36.720Z,21.42
2022-07-29T02:51:43.342Z,21.41
2022-07-29T02:54:43.868Z,21.42
2022-07-29T02:57:55.172Z,21.43
2022-07-29T03:00:50.300Z,21.42
2022-07-29T03:03:44.839Z,21.43
2022-07-29T03:06:40.349Z,21.40
2022-07-29T03:09:34.377Z,21.40
2022-07-29T03:12:27.687Z,21.39
2022-07-29T03:15:20.779Z,21.40
2022-07-29T03:18:16.133Z,21.38
2022-07-29T03:21:08.692Z,21.37
2022-07-29T03:24:00.733Z,21.37
2022-07-29T03:26:53.023Z,21.36
2022-07-29T03:29:49.752Z,21.35
2022-07-29T03:32:42.998Z,21.36
2022-07-29T03:35:37.803Z,21.36
2022-07-29T03:38:33.337Z,21.36
2022-07-29T03:41:27.265Z,21.37
2022-07-29T03:44:22.455Z,21.35
2022-07-29T03:47:16.153Z,21.35
2022-07-29T03:50:14.380Z,21.36
2022-07-29T03:53:07.746Z,21.37
2022-07-29T03:56:04.686Z,21.37
2022-07-29T03:58:57.939Z,21.38
2022-07-29T04:01:51.450Z,21.39
2022-07-29T04:04:43.655Z,21.40
2022-07-29T04:07:35.824Z,21.42
2022-07-29T04:10:31.994Z,21.43
2022-07-29T04:13:26.668Z,21.44
2022-07-29T04:16:18.739Z,21.47
2022-07-29T04:19:10.661Z,21.49
2022-07-29T04:22:03.747Z,21.50
2022-07-29T04:24:57.999Z,21.53
2022-07-29T04:28:04.914Z,21.56
2022-07-29T04:30:56.941Z,21.60
2022-07-29T04:33:48.659Z,21.62
2022-07-29T04:36:42.496Z,21.67
2022-07-29T04:39:34.650Z,21.71
2022-07-29T04:42:27.765Z,21.76
2022-07-29T04:45:22.350Z,21.81
2022-07-29T04:48:14.817Z,21.88
2022-07-29T04:51:07.425Z,21.95
2022-07-29T04:53:59.911Z,22.02
2022-07-29T04:56:52.167Z,22.11
2022-07-29T04:59:44.959Z,22.20
2022-07-29T05:02:38.883Z,22.29
2022-07-29T05:05:32.156Z,22.38
2022-07-29T05:08:23.873Z,22.47
2022-07-29T05:11:19.414Z,22.57
2022-07-29T05:14:14.527Z,22.66
2022-07-29T05:17:08.045Z,22.77
2022-07-29T05:19:59.839Z,22.87
2022-07-29T05:22:50.490Z,22.98
2022-07-29T05:25:44.960Z,23.07
2022-07-29T05:28:39.609Z,23.20
2022-07-29T05:31:33.353Z,23.31
2022-07-29T05:34:26.314Z,23.41
2022-07-29T05:37:18.969Z,23.53
2022-07-29T05:40:12.971Z,23.65
2022-07-29T05:43:06.520Z,23.77
2022-07-29T05:45:59.529Z,23.91
2022-07-29T05:48:52.027Z,24.02
2022-07-29T05:51:44.071Z,24.16
2022-07-29T05:54:37.131Z,24.30
2022-07-29T05:57:29.217Z,24.44
2022-07-29T06:00:22.300Z,24.56
2022-07-29T06:03:15.095Z,24.70
2022-07-29T06:06:08.496Z,24.83
2022-07-29T06:09:00.562Z,24.98
2022-07-29T06:12:05.970Z,25.12
2022-07-29T06:14:59.103Z,25.24
2022-07-29T06:18:00.870Z,25.37
2022-07-29T06:20:54.929Z,25.48
2022-07-29T06:23:47.750Z,25.59
2022-07-29T06:26:41.497Z,25.70
2022-07-29T06:29:33.723Z,25.79
2022-07-29T06:32:27.438Z,25.90
2022-07-29T06:35:41.386Z,26.02
2022-07-29T06:38:34.229Z,26.16
2022-07-29T06:41:27.557Z,26.26
2022-07-29T06:44:20.994Z,26.38
2022-07-29T06:47:13.230Z,26.48
2022-07-29T06:50:07.781Z,26.57
2022-07-29T06:53:00.844Z,26.67
2022-07-29T06:55:54.006Z,26.77
2022-07-29T06:58:47.418Z,26.87
2022-07-29T07:01:40.528Z,26.99
2022-07-29T07:04:33.201Z,27.11
2022-07-29T07:07:25.929Z,27.22
2022-07-29T07:10:17.910Z,27.34
2022-07-29T07:13:11.071Z,27.43
2022-07-29T07:16:03.243Z,27.51
2022-07-29T07:18:54.879Z,27.61
2022-07-29T07:21:45.116Z,27.71
2022-07-29T07:24:37.745Z,27.80
2022-07-29T07:27:30.882Z,27.92
2022-07-29T07:30:24.028Z,28.05
2022-07-29T07:33:16.318Z,28.17
2022-07-29T07:36:08.756Z,28.31
2022-07-29T07:39:02.107Z,28.43
2022-07-29T07:41:56.308Z,28.51
2022-07-29T07:45:12.073Z,28.63
2022-07-29T07:48:03.311Z,28.75
2022-07-29T07:50:56.367Z,28.86
2022-07-29T07:53:51.586Z,28.97
2022-07-29T07:56:44.463Z,29.07
2022-07-29T07:59:37.505Z,29.19
2022-07-29T08:02:29.861Z,29.31
2022-07-29T08:05:22.467Z,29.41
2022-07-29T08:08:15.056Z,29.55
2022-07-29T08:11:09.739Z,29.67
2022-07-29T08:14:02.865Z,29.80
2022-07-29T08:16:55.947Z,29.89
2022-07-29T08:19:49.676Z,29.95
2022-07-29T08:22:41.829Z,30.03
2022-07-29T08:25:34.738Z,30.11
2022-07-29T08:28:32.148Z,30.20
2022-07-29T08:31:24.786Z,30.28
2022-07-29T08:34:18.139Z,30.35
2022-07-29T08:37:10.333Z,30.42
2022-07-29T08:40:03.236Z,30.50
2022-07-29T08:42:55.363Z,30.61
2022-07-29T08:45:49.277Z,30.70
2022-07-29T08:48:43.481Z,30.71
2022-07-29T08:51:47.097Z,30.80
2022-07-29T08:54:45.707Z,30.97
2022-07-29T08:57:39.348Z,31.14
2022-07-29T09:00:47.641Z,31.35
2022-07-29T09:03:42.807Z,31.52
2022-07-29T09:06:39.825Z,31.67
2022-07-29T09:09:33.245Z,31.84
2022-07-29T09:12:28.828Z,31.96
2022-07-29T09:15:23.673Z,32.10
2022-07-29T09:18:35.847Z,32.24
2022-07-29T09:21:46.514Z,32.40
2022-07-29T09:24:45.645Z,32.57
2022-07-29T09:27:38.298Z,32.74
2022-07-29T09:30:31.914Z,32.87
2022-07-29T09:33:25.468Z,33.01
2022-07-29T09:36:18.028Z,33.14
2022-07-29T09:39:11.822Z,33.24
2022-07-29T09:42:05.936Z,33.40
2022-07-29T09:44:58.115Z,33.52
2022-07-29T09:47:51.889Z,33.68
2022-07-29T09:50:46.337Z,33.79
2022-07-29T09:53:41.177Z,33.93
2022-07-29T09:56:45.998Z,34.06
2022-07-29T09:59:50.166Z,34.18
2022-07-29T10:02:46.179Z,34.26
2022-07-29T10:05:39.169Z,34.38
2022-07-29T10:08:31.964Z,34.53
2022-07-29T10:11:24.518Z,34.69
2022-07-29T10:14:17.780Z,34.84
2022-07-29T10:17:11.743Z,34.96
2022-07-29T10:20:04.632Z,35.07
2022-07-29T10:22:58.015Z,35.18
2022-07-29T10:25:51.620Z,35.31
2022-07-29T10:28:44.433Z,35.38
2022-07-29T10:31:46.645Z,35.48
2022-07-29T10:34:58.460Z,35.57
2022-07-29T10:38:18.556Z,35.63
2022-07-29T10:44:44.516Z,35.78
2022-07-29T10:47:38.883Z,35.90
2022-07-29T10:50:52.631Z,36.01
2022-07-29T10:53:53.413Z,36.14
2022-07-29T10:56:49.958Z,36.24
2022-07-29T10:59:43.094Z,36.34
2022-07-29T11:02:53.359Z,36.40
2022-07-29T11:06:09.962Z,36.46
2022-07-29T11:09:34.796Z,36.56
2022-07-29T11:12:50.436Z,36.64
2022-07-29T11:19:29.780Z,36.78
2022-07-29T11:22:36.048Z,36.83
2022-07-29T11:25:43.053Z,36.91
2022-07-29T11:28:36.137Z,36.97
2022-07-29T11:31:39.270Z,37.00
2022-07-29T11:34:30.233Z,37.03
2022-07-29T11:37:28.339Z,37.06
2022-07-29T11:40:22.463Z,37.08
2022-07-29T11:43:11.613Z,37.11
2022-07-29T11:46:04.521Z,37.17
2022-07-29T11:48:53.271Z,37.25
2022-07-29T11:51:48.215Z,37.26
2022-07-29T11:54:57.965Z,37.30
2022-07-29T11:58:03.953Z,37.34
2022-07-29T12:00:56.194Z,37.34
2022-07-29T12:03:45.370Z,37.35
2022-07-29T12:06:34.969Z,37.35
2022-07-29T12:09:25.154Z,37.36
2022-07-29T12:12:18.559Z,37.40
2022-07-29T12:15:20.630Z,37.43
2022-07-29T12:18:14.701Z,37.42
2022-07-29T12:21:05.036Z,37.47
2022-07-29T12:24:03.457Z,37.56
2022-07-29T12:26:56.411Z,37.61
2022-07-29T12:29:48.041Z,37.67
2022-07-29T12:32:39.424Z,37.74
2022-07-29T12:35:28.538Z,37.79
2022-07-29T12:38:18.153Z,37.83
2022-07-29T12:41:07.890Z,37.85
2022-07-29T12:43:59.105Z,37.83
2022-07-29T12:47:02.104Z,37.81
2022-07-29T12:49:51.845Z,37.76
2022-07-29T12:52:40.527Z,37.81
2022-07-29T12:55:49.452Z,37.85
2022-07-29T12:58:42.345Z,37.89
2022-07-29T13:01:38.677Z,37.94
2022-07-29T13:04:30.173Z,38.00
2022-07-29T13:07:54.980Z,38.03
2022-07-29T13:10:37.682Z,38.08
2022-07-29T13:13:26.623Z,38.16
2022-07-29T13:16:15.739Z,38.22
2022-07-29T13:19:12.503Z,38.25
2022-07-29T13:22:02.836Z,38.07
2022-07-29T13:24:53.772Z,37.92
2022-07-29T13:27:42.603Z,37.95
2022-07-29T13:30:32.199Z,38.05
2022-07-29T13:33:20.934Z,38.12
2022-07-29T13:36:11.338Z,38.09
2022-07-29T13:39:01.925Z,38.01
2022-07-29T13:41:50.683Z,37.95
2022-07-29T13:44:40.961Z,37.91
2022-07-29T13:47:32.835Z,37.88
2022-07-29T13:50:22.683Z,37.85
2022-07-29T13:53:18.015Z,37.78
2022-07-29T13:56:08.592Z,37.75
2022-07-29T13:58:57.963Z,37.79
2022-07-29T14:01:47.127Z,37.77
2022-07-29T14:04:35.802Z,37.82
2022-07-29T14:07:25.251Z,37.82
2022-07-29T14:10:19.750Z,37.84
2022-07-29T14:13:24.997Z,37.83
2022-07-29T14:16:15.538Z,37.86
2022-07-29T14:19:04.649Z,37.89
2022-07-29T14:21:54.018Z,37.92
2022-07-29T14:24:44.613Z,37.94
2022-07-29T14:27:37.399Z,37.94
2022-07-29T14:30:28.070Z,37.89
2022-07-29T14:33:17.438Z,37.84
2022-07-29T14:36:07.220Z,37.76
2022-07-29T14:38:56.225Z,37.64
2022-07-29T14:41:45.344Z,37.47
2022-07-29T14:44:34.100Z,37.39
2022-07-29T14:47:23.926Z,37.29
2022-07-29T14:50:14.524Z,37.13
2022-07-29T14:53:02.209Z,37.05
2022-07-29T14:55:51.377Z,37.01
2022-07-29T14:58:40.663Z,36.98
2022-07-29T15:01:41.903Z,36.96
2022-07-29T15:04:30.775Z,36.91
2022-07-29T15:07:19.505Z,36.88
2022-07-29T15:10:09.102Z,36.81
2022-07-29T15:12:58.859Z,36.78
2022-07-29T15:15:48.022Z,36.74
2022-07-29T15:18:38.417Z,36.70
2022-07-29T15:21:27.992Z,36.68
2022-07-29T15:24:16.969Z,36.65
2022-07-29T15:27:06.736Z,36.59
2022-07-29T15:29:56.307Z,36.53
2022-07-29T15:32:45.678Z,36.49
2022-07-29T15:35:40.060Z,36.41
2022-07-29T15:38:32.444Z,36.28
2022-07-29T15:41:21.777Z,36.19
2022-07-29T15:44:10.328Z,36.16
2022-07-29T15:47:05.606Z,36.12
2022-07-29T15:49:55.008Z,36.08
2022-07-29T15:52:44.853Z,36.04
2022-07-29T15:55:34.156Z,36.00
2022-07-29T15:58:23.115Z,35.94
2022-07-29T16:01:12.902Z,35.88
2022-07-29T16:04:02.526Z,35.76
2022-07-29T16:06:52.043Z,35.66
2022-07-29T16:09:40.801Z,35.62
2022-07-29T16:12:29.765Z,35.57
2022-07-29T16:15:18.346Z,35.48
2022-07-29T16:18:08.960Z,35.39
2022-07-29T16:20:59.537Z,35.30
2022-07-29T16:23:48.068Z,35.22
2022-07-29T16:26:37.022Z,35.10
2022-07-29T16:29:26.803Z,34.97
2022-07-29T16:32:15.351Z,34.86
2022-07-29T16:35:12.406Z,34.77
2022-07-29T16:38:01.877Z,34.69
2022-07-29T16:40:51.039Z,34.60
2022-07-29T16:43:40.002Z,34.54
2022-07-29T16:46:28.582Z,34.48
2022-07-29T16:49:19.468Z,34.37
2022-07-29T16:52:08.726Z,34.27
2022-07-29T16:54:57.918Z,34.18
2022-07-29T16:57:47.878Z,34.10
2022-07-29T17:00:37.078Z,34.02
2022-07-29T17:03:26.408Z,33.94
2022-07-29T17:06:15.373Z,33.84
2022-07-29T17:09:07.089Z,33.72
2022-07-29T17:11:56.366Z,33.62
2022-07-29T17:14:46.170Z,33.53
2022-07-29T17:17:38.750Z,33.43
2022-07-29T17:20:28.320Z,33.33
2022-07-29T17:23:18.348Z,33.24
2022-07-29T17:26:07.109Z,33.14
2022-07-29T17:28:56.073Z,33.05
2022-07-29T17:31:44.667Z,32.95
2022-07-29T17:34:33.356Z,32.85
2022-07-29T17:37:23.360Z,32.76
2022-07-29T17:40:15.013Z,32.66
2022-07-29T17:43:05.168Z,32.58
2022-07-29T17:45:56.855Z,32.49
2022-07-29T17:48:49.085Z,32.38
2022-07-29T17:51:38.403Z,32.24
2022-07-29T17:54:27.261Z,32.10
2022-07-29T17:57:16.115Z,31.93
2022-07-29T18:00:08.698Z,31.82
2022-07-29T18:02:57.778Z,31.70
2022-07-29T18:05:46.888Z,31.60
2022-07-29T18:08:36.052Z,31.49
2022-07-29T18:11:25.218Z,31.39
2022-07-29T18:14:14.178Z,31.28
2022-07-29T18:17:02.938Z,31.14
2022-07-29T18:19:52.714Z,31.03
2022-07-29T18:22:42.088Z,30.95
2022-07-29T18:25:31.044Z,30.83
2022-07-29T18:28:20.623Z,30.72
2022-07-29T18:31:12.896Z,30.55
2022-07-29T18:34:02.021Z,30.36
2022-07-29T18:36:51.800Z,30.15
2022-07-29T18:39:40.325Z,29.96
2022-07-29T18:42:29.313Z,29.82
2022-07-29T18:45:20.022Z,29.74
2022-07-29T18:48:13.017Z,29.66
2022-07-29T18:51:02.746Z,29.53
2022-07-29T18:53:58.874Z,29.38
2022-07-29T18:56:47.632Z,29.24
2022-07-29T18:59:38.057Z,29.12
2022-07-29T19:02:27.515Z,29.00
2022-07-29T19:05:16.722Z,28.90
2022-07-29T19:08:06.133Z,28.78
2022-07-29T19:10:55.709Z,28.65
2022-07-29T19:13:44.669Z,28.53
2022-07-29T19:16:33.741Z,28.42
2022-07-29T19:19:22.388Z,28.30
2022-07-29T19:22:12.984Z,28.18
2022-07-29T19:25:02.968Z,28.08
2022-07-29T19:27:51.520Z,27.99
2022-07-29T19:30:41.136Z,27.89
2022-07-29T19:33:29.851Z,27.84
2022-07-29T19:36:18.402Z,27.78
2022-07-29T19:39:07.362Z,27.67
2022-07-29T19:42:00.303Z,27.62
2022-07-29T19:44:51.834Z,27.55
2022-07-29T19:47:40.956Z,27.45
2022-07-29T19:50:30.644Z,27.36
2022-07-29T19:53:20.527Z,27.27
2022-07-29T19:56:09.129Z,27.19
2022-07-29T19:58:58.275Z,27.08
2022-07-29T20:01:47.083Z,26.99
2022-07-29T20:04:35.991Z,26.94
2022-07-29T20:07:24.951Z,26.87
2022-07-29T20:10:13.914Z,26.74
2022-07-29T20:13:04.715Z,26.63
2022-07-29T20:15:53.736Z,26.56
2022-07-29T20:18:43.248Z,26.53
2022-07-29T20:21:33.851Z,26.46
2022-07-29T20:24:23.216Z,26.41
2022-07-29T20:27:13.561Z,26.35
2022-07-29T20:30:02.980Z,26.29
2022-07-29T20:32:51.949Z,26.22
2022-07-29T20:35:41.313Z,26.12
2022-07-29T20:38:30.478Z,26.04
2022-07-29T20:41:20.051Z,25.97
2022-07-29T20:44:08.394Z,25.90
2022-07-29T20:46:57.772Z,25.85
2022-07-29T20:49:46.674Z,25.77
2022-07-29T20:52:35.073Z,25.72
2022-07-29T20:55:23.825Z,25.67
2022-07-29T20:58:12.789Z,25.62
2022-07-29T21:01:03.445Z,25.58
2022-07-29T21:03:52.564Z,25.54
2022-07-29T21:06:41.719Z,25.47
2022-07-29T21:09:30.476Z,25.41
2022-07-29T21:12:18.820Z,25.40
2022-07-29T21:15:13.256Z,25.36
2022-07-29T21:18:04.436Z,25.30
2022-07-29T21:20:52.458Z,25.28
2022-07-29T21:23:41.830Z,25.25
2022-07-29T21:26:30.994Z,25.22
2022-07-29T21:29:20.157Z,25.21
2022-07-29T21:32:09.118Z,25.17
2022-07-29T21:34:57.622Z,25.14
2022-07-29T21:37:46.423Z,25.12
2022-07-29T21:40:35.589Z,25.09
2022-07-29T21:43:26.204Z,25.07
2022-07-29T21:46:17.660Z,25.05
2022-07-29T21:49:06.603Z,25.01
2022-07-29T21:51:55.728Z,24.97
2022-07-29T21:54:45.508Z,24.93
2022-07-29T21:57:34.675Z,24.87
2022-07-29T22:00:25.055Z,24.84
2022-07-29T22:03:14.030Z,24.80
2022-07-29T22:06:02.995Z,24.79
2022-07-29T22:08:53.589Z,24.79
2022-07-29T22:11:42.342Z,24.78
2022-07-29T22:14:31.918Z,24.75
2022-07-29T22:17:23.130Z,24.73
2022-07-29T22:20:13.890Z,24.72
2022-07-29T22:23:03.100Z,24.69
2022-07-29T22:25:52.579Z,24.63
2022-07-29T22:28:41.426Z,24.57
2022-07-29T22:31:30.182Z,24.52
2022-07-29T22:34:18.935Z,24.49
2022-07-29T22:37:08.101Z,24.45
2022-07-29T22:39:57.829Z,24.43
2022-07-29T22:42:47.251Z,24.40
2022-07-29T22:45:36.006Z,24.37
2022-07-29T22:48:24.764Z,24.34
2022-07-29T22:51:12.838Z,24.31
2022-07-29T22:54:01.455Z,24.30
2022-07-29T22:56:50.417Z,24.31
2022-07-29T22:59:38.967Z,24.29
2022-07-29T23:02:28.131Z,24.27
2022-07-29T23:05:16.301Z,24.25
2022-07-29T23:08:06.334Z,24.23
2022-07-29T23:10:55.011Z,24.21
2022-07-29T23:13:44.176Z,24.17
2022-07-29T23:16:33.604Z,24.15
2022-07-29T23:19:22.914Z,24.13
2022-07-29T23:22:11.672Z,24.12
2022-07-29T23:25:00.432Z,24.08
2022-07-29T23:27:49.184Z,24.05
2022-07-29T23:30:37.952Z,24.01
2022-07-29T23:33:26.897Z,23.97
2022-07-29T23:36:16.060Z,23.94
2022-07-29T23:39:05.839Z,23.92
2022-07-29T23:41:55.016Z,23.90
2022-07-29T23:44:44.376Z,23.87
2022-07-29T23:47:34.155Z,23.86
2022-07-29T23:50:23.732Z,23.85
2022-07-29T23:53:12.281Z,23.82
2022-07-29T23:56:00.828Z,23.83
2022-07-29T23:58:50.205Z,23.79
